sensor_id;sensor_type;location;lat;lon;timestamp;temperature;humidity
68813;DHT22;55808;48.112;11.552;2022-11-21T00:00:29;3.10;99.90
68813;DHT22;55808;48.112;11.552;2022-11-21T00:03:00;3.20;99.90
68813;DHT22;55808;48.112;11.552;2022-11-21T00:05:27;3.10;99.90
68813;DHT22;55808;48.112;11.552;2022-11-21T00:07:53;3.10;99.90
68813;DHT22;55808;48.112;11.552;2022-11-21T00:10:19;3.10;99.90
68813;DHT22;55808;48.112;11.552;2022-11-21T00:12:45;3.10;99.90
68813;DHT22;55808;48.112;11.552;2022-11-21T00:15:10;3.10;99.90
68813;DHT22;55808;48.112;11.552;2022-11-21T00:17:36;3.10;99.90
68813;DHT22;55808;48.112;11.552;2022-11-21T00:20:02;3.10;99.90
68813;DHT22;55808;48.112;11.552;2022-11-21T00:22:27;3.10;99.90
68813;DHT22;55808;48.112;11.552;2022-11-21T00:24:53;3.10;99.90
68813;DHT22;55808;48.112;11.552;2022-11-21T00:27:18;3.10;99.90
68813;DHT22;55808;48.112;11.552;2022-11-21T00:29:44;3.10;99.90
68813;DHT22;55808;48.112;11.552;2022-11-21T00:32:10;3.10;99.90
68813;DHT22;55808;48.112;11.552;2022-11-21T00:34:35;3.20;99.90
68813;DHT22;55808;48.112;11.552;2022-11-21T00:37:01;3.10;99.90
68813;DHT22;55808;48.112;11.552;2022-11-21T00:39:27;3.20;99.90
68813;DHT22;55808;48.112;11.552;2022-11-21T00:41:52;3.20;99.90
68813;DHT22;55808;48.112;11.552;2022-11-21T00:44:18;3.20;99.90
68813;DHT22;55808;48.112;11.552;2022-11-21T00:46:44;3.20;99.90
68813;DHT22;55808;48.112;11.552;2022-11-21T00:49:09;3.30;99.90
68813;DHT22;55808;48.112;11.552;2022-11-21T00:51:35;3.20;99.90
68813;DHT22;55808;48.112;11.552;2022-11-21T00:54:00;3.20;99.90
68813;DHT22;55808;48.112;11.552;2022-11-21T00:56:26;3.20;99.90
68813;DHT22;55808;48.112;11.552;2022-11-21T00:58:51;3.20;99.90
68813;DHT22;55808;48.112;11.552;2022-11-21T01:01:17;3.10;99.90
68813;DHT22;55808;48.112;11.552;2022-11-21T01:03:43;3.20;99.90
68813;DHT22;55808;48.112;11.552;2022-11-21T01:06:12;3.20;99.90
68813;DHT22;55808;48.112;11.552;2022-11-21T01:08:40;3.20;99.90
68813;DHT22;55808;48.112;11.552;2022-11-21T01:11:15;3.20;99.90
68813;DHT22;55808;48.112;11.552;2022-11-21T01:13:41;3.30;99.90
68813;DHT22;55808;48.112;11.552;2022-11-21T01:16:09;3.30;99.90
68813;DHT22;55808;48.112;11.552;2022-11-21T01:18:36;3.30;99.90
68813;DHT22;55808;48.112;11.552;2022-11-21T01:21:04;3.30;99.90
68813;DHT22;55808;48.112;11.552;2022-11-21T01:23:30;3.30;99.90
68813;DHT22;55808;48.112;11.552;2022-11-21T01:26:08;3.30;99.90
68813;DHT22;55808;48.112;11.552;2022-11-21T01:28:34;3.30;99.90
68813;DHT22;55808;48.112;11.552;2022-11-21T01:31:11;3.30;99.90
68813;DHT22;55808;48.112;11.552;2022-11-21T01:33:37;3.40;99.90
68813;DHT22;55808;48.112;11.552;2022-11-21T01:38:39;3.40;99.90
68813;DHT22;55808;48.112;11.552;2022-11-21T01:41:06;3.50;99.90
68813;DHT22;55808;48.112;11.552;2022-11-21T01:43:32;3.60;99.90
68813;DHT22;55808;48.112;11.552;2022-11-21T01:46:00;3.50;99.90
68813;DHT22;55808;48.112;11.552;2022-11-21T01:59:29;3.50;99.90
68813;DHT22;55808;48.112;11.552;2022-11-21T02:01:57;3.60;99.90
68813;DHT22;55808;48.112;11.552;2022-11-21T02:04:29;3.50;99.90
68813;DHT22;55808;48.112;11.552;2022-11-21T02:06:56;3.60;99.90
68813;DHT22;55808;48.112;11.552;2022-11-21T02:09:22;3.50;99.90
68813;DHT22;55808;48.112;11.552;2022-11-21T02:11:54;3.60;99.90
68813;DHT22;55808;48.112;11.552;2022-11-21T02:14:20;3.60;99.90
68813;DHT22;55808;48.112;11.552;2022-11-21T02:16:46;3.60;99.90
68813;DHT22;55808;48.112;11.552;2022-11-21T02:19:26;3.50;99.90
68813;DHT22;55808;48.112;11.552;2022-11-21T02:21:55;3.60;99.90
68813;DHT22;55808;48.112;11.552;2022-11-21T02:24:45;3.60;99.90
68813;DHT22;55808;48.112;11.552;2022-11-21T02:27:14;3.60;99.90
68813;DHT22;55808;48.112;11.552;2022-11-21T02:29:40;3.50;99.90
68813;DHT22;55808;48.112;11.552;2022-11-21T02:32:07;3.60;99.90
68813;DHT22;55808;48.112;11.552;2022-11-21T02:34:34;3.60;99.90
68813;DHT22;55808;48.112;11.552;2022-11-21T02:37:00;3.50;99.90
68813;DHT22;55808;48.112;11.552;2022-11-21T02:39:30;3.50;99.90
68813;DHT22;55808;48.112;11.552;2022-11-21T02:44:51;3.60;99.90
68813;DHT22;55808;48.112;11.552;2022-11-21T02:47:20;3.60;99.90
68813;DHT22;55808;48.112;11.552;2022-11-21T02:52:15;3.60;99.90
68813;DHT22;55808;48.112;11.552;2022-11-21T02:54:41;3.70;99.90
68813;DHT22;55808;48.112;11.552;2022-11-21T02:57:07;3.60;99.90
68813;DHT22;55808;48.112;11.552;2022-11-21T02:59:33;3.60;99.90
68813;DHT22;55808;48.112;11.552;2022-11-21T03:01:59;3.70;99.90
68813;DHT22;55808;48.112;11.552;2022-11-21T03:04:25;3.70;99.90
68813;DHT22;55808;48.112;11.552;2022-11-21T03:06:51;3.70;99.90
68813;DHT22;55808;48.112;11.552;2022-11-21T03:09:17;3.90;99.90
68813;DHT22;55808;48.112;11.552;2022-11-21T03:11:42;3.90;99.90
68813;DHT22;55808;48.112;11.552;2022-11-21T03:14:08;3.80;99.90
68813;DHT22;55808;48.112;11.552;2022-11-21T03:16:34;3.80;99.90
68813;DHT22;55808;48.112;11.552;2022-11-21T03:18:59;3.70;99.90
68813;DHT22;55808;48.112;11.552;2022-11-21T03:21:26;3.70;99.90
68813;DHT22;55808;48.112;11.552;2022-11-21T03:23:51;3.60;99.90
68813;DHT22;55808;48.112;11.552;2022-11-21T03:26:17;3.50;99.90
68813;DHT22;55808;48.112;11.552;2022-11-21T03:28:42;3.50;99.90
68813;DHT22;55808;48.112;11.552;2022-11-21T03:31:08;3.50;99.90
68813;DHT22;55808;48.112;11.552;2022-11-21T03:33:34;3.50;99.90
68813;DHT22;55808;48.112;11.552;2022-11-21T03:35:59;3.50;99.90
68813;DHT22;55808;48.112;11.552;2022-11-21T03:38:25;3.40;99.90
68813;DHT22;55808;48.112;11.552;2022-11-21T03:40:50;3.40;99.90
68813;DHT22;55808;48.112;11.552;2022-11-21T03:43:16;3.40;99.90
68813;DHT22;55808;48.112;11.552;2022-11-21T03:45:45;3.40;99.90
68813;DHT22;55808;48.112;11.552;2022-11-21T03:48:11;3.40;99.90
68813;DHT22;55808;48.112;11.552;2022-11-21T03:50:37;3.40;99.90
68813;DHT22;55808;48.112;11.552;2022-11-21T03:53:02;3.30;99.90
68813;DHT22;55808;48.112;11.552;2022-11-21T03:55:28;3.30;99.90
68813;DHT22;55808;48.112;11.552;2022-11-21T03:57:53;3.30;99.90
68813;DHT22;55808;48.112;11.552;2022-11-21T04:00:19;3.50;99.90
68813;DHT22;55808;48.112;11.552;2022-11-21T04:02:45;3.40;99.90
68813;DHT22;55808;48.112;11.552;2022-11-21T04:05:10;3.30;99.90
68813;DHT22;55808;48.112;11.552;2022-11-21T04:07:36;3.50;99.90
68813;DHT22;55808;48.112;11.552;2022-11-21T04:10:02;3.40;99.90
68813;DHT22;55808;48.112;11.552;2022-11-21T04:12:27;3.50;99.90
68813;DHT22;55808;48.112;11.552;2022-11-21T04:14:53;3.50;99.90
68813;DHT22;55808;48.112;11.552;2022-11-21T04:17:19;3.50;99.90
68813;DHT22;55808;48.112;11.552;2022-11-21T04:19:45;3.40;99.90
68813;DHT22;55808;48.112;11.552;2022-11-21T04:22:10;3.50;99.90
68813;DHT22;55808;48.112;11.552;2022-11-21T04:24:36;3.50;99.90
68813;DHT22;55808;48.112;11.552;2022-11-21T04:27:01;3.60;99.90
68813;DHT22;55808;48.112;11.552;2022-11-21T04:29:27;3.50;99.90
68813;DHT22;55808;48.112;11.552;2022-11-21T04:31:53;3.60;99.90
68813;DHT22;55808;48.112;11.552;2022-11-21T04:34:18;3.80;99.90
68813;DHT22;55808;48.112;11.552;2022-11-21T04:36:44;3.70;99.90
68813;DHT22;55808;48.112;11.552;2022-11-21T04:39:09;3.70;99.90
68813;DHT22;55808;48.112;11.552;2022-11-21T04:41:35;3.80;99.90
68813;DHT22;55808;48.112;11.552;2022-11-21T04:44:01;3.80;99.90
68813;DHT22;55808;48.112;11.552;2022-11-21T04:46:26;3.70;99.90
68813;DHT22;55808;48.112;11.552;2022-11-21T04:48:52;3.60;99.90
68813;DHT22;55808;48.112;11.552;2022-11-21T04:51:18;3.60;99.90
68813;DHT22;55808;48.112;11.552;2022-11-21T04:53:43;3.50;99.90
68813;DHT22;55808;48.112;11.552;2022-11-21T04:56:09;3.50;99.90
68813;DHT22;55808;48.112;11.552;2022-11-21T04:58:35;3.50;99.90
68813;DHT22;55808;48.112;11.552;2022-11-21T05:01:07;3.50;99.90
68813;DHT22;55808;48.112;11.552;2022-11-21T05:03:33;3.50;99.90
68813;DHT22;55808;48.112;11.552;2022-11-21T05:05:59;3.50;99.90
68813;DHT22;55808;48.112;11.552;2022-11-21T05:08:25;3.50;99.90
68813;DHT22;55808;48.112;11.552;2022-11-21T05:10:50;3.40;99.90
68813;DHT22;55808;48.112;11.552;2022-11-21T05:13:34;3.40;99.90
68813;DHT22;55808;48.112;11.552;2022-11-21T05:16:00;3.30;99.90
68813;DHT22;55808;48.112;11.552;2022-11-21T05:18:25;3.40;99.90
68813;DHT22;55808;48.112;11.552;2022-11-21T05:20:51;3.30;99.90
68813;DHT22;55808;48.112;11.552;2022-11-21T05:23:17;3.30;99.90
68813;DHT22;55808;48.112;11.552;2022-11-21T05:25:42;3.30;99.90
68813;DHT22;55808;48.112;11.552;2022-11-21T05:28:08;3.30;99.90
68813;DHT22;55808;48.112;11.552;2022-11-21T05:30:34;3.30;99.90
68813;DHT22;55808;48.112;11.552;2022-11-21T05:33:01;3.30;99.90
68813;DHT22;55808;48.112;11.552;2022-11-21T05:35:27;3.30;99.90
68813;DHT22;55808;48.112;11.552;2022-11-21T05:37:57;3.30;99.90
68813;DHT22;55808;48.112;11.552;2022-11-21T05:40:23;3.20;99.90
68813;DHT22;55808;48.112;11.552;2022-11-21T05:42:49;3.20;99.90
68813;DHT22;55808;48.112;11.552;2022-11-21T05:45:33;3.10;99.90
68813;DHT22;55808;48.112;11.552;2022-11-21T05:47:59;3.00;99.90
68813;DHT22;55808;48.112;11.552;2022-11-21T05:50:25;3.10;99.90
68813;DHT22;55808;48.112;11.552;2022-11-21T05:52:51;3.20;99.90
68813;DHT22;55808;48.112;11.552;2022-11-21T05:55:17;3.10;99.90
68813;DHT22;55808;48.112;11.552;2022-11-21T05:57:43;3.10;99.90
68813;DHT22;55808;48.112;11.552;2022-11-21T06:00:08;3.20;99.90
68813;DHT22;55808;48.112;11.552;2022-11-21T06:02:34;3.30;99.90
68813;DHT22;55808;48.112;11.552;2022-11-21T06:05:32;3.20;99.90
68813;DHT22;55808;48.112;11.552;2022-11-21T06:07:58;3.30;99.90
68813;DHT22;55808;48.112;11.552;2022-11-21T06:10:23;3.30;99.90
68813;DHT22;55808;48.112;11.552;2022-11-21T06:12:50;3.20;99.90
68813;DHT22;55808;48.112;11.552;2022-11-21T06:15:16;3.30;99.90
68813;DHT22;55808;48.112;11.552;2022-11-21T06:17:41;3.30;99.90
68813;DHT22;55808;48.112;11.552;2022-11-21T06:20:08;3.30;99.90
68813;DHT22;55808;48.112;11.552;2022-11-21T06:22:33;3.30;99.90
68813;DHT22;55808;48.112;11.552;2022-11-21T06:24:59;3.30;99.90
68813;DHT22;55808;48.112;11.552;2022-11-21T06:27:25;3.40;99.90
68813;DHT22;55808;48.112;11.552;2022-11-21T06:29:50;3.30;99.90
68813;DHT22;55808;48.112;11.552;2022-11-21T06:32:16;3.30;99.90
68813;DHT22;55808;48.112;11.552;2022-11-21T06:34:41;3.40;99.90
68813;DHT22;55808;48.112;11.552;2022-11-21T06:37:07;3.40;99.90
68813;DHT22;55808;48.112;11.552;2022-11-21T06:39:32;3.40;99.90
68813;DHT22;55808;48.112;11.552;2022-11-21T06:41:58;3.50;99.90
68813;DHT22;55808;48.112;11.552;2022-11-21T06:44:25;3.40;99.90
68813;DHT22;55808;48.112;11.552;2022-11-21T06:46:50;3.50;99.90
68813;DHT22;55808;48.112;11.552;2022-11-21T06:49:16;3.60;99.90
68813;DHT22;55808;48.112;11.552;2022-11-21T06:51:42;3.60;99.90
68813;DHT22;55808;48.112;11.552;2022-11-21T06:54:07;3.60;99.90
68813;DHT22;55808;48.112;11.552;2022-11-21T06:56:33;3.60;99.90
68813;DHT22;55808;48.112;11.552;2022-11-21T06:58:59;3.60;99.90
68813;DHT22;55808;48.112;11.552;2022-11-21T07:01:24;3.60;99.90
68813;DHT22;55808;48.112;11.552;2022-11-21T07:03:50;3.60;99.90
68813;DHT22;55808;48.112;11.552;2022-11-21T07:06:16;3.50;99.90
68813;DHT22;55808;48.112;11.552;2022-11-21T07:08:42;3.60;99.90
68813;DHT22;55808;48.112;11.552;2022-11-21T07:11:12;3.50;99.90
68813;DHT22;55808;48.112;11.552;2022-11-21T07:13:38;3.50;99.90
68813;DHT22;55808;48.112;11.552;2022-11-21T07:16:09;3.40;99.90
68813;DHT22;55808;48.112;11.552;2022-11-21T07:18:35;3.40;99.90
68813;DHT22;55808;48.112;11.552;2022-11-21T07:21:03;3.50;99.90
68813;DHT22;55808;48.112;11.552;2022-11-21T07:23:29;3.40;99.90
68813;DHT22;55808;48.112;11.552;2022-11-21T07:25:59;3.80;99.90
68813;DHT22;55808;48.112;11.552;2022-11-21T07:28:26;3.60;99.90
68813;DHT22;55808;48.112;11.552;2022-11-21T07:30:55;3.60;99.90
68813;DHT22;55808;48.112;11.552;2022-11-21T07:33:21;3.70;99.90
68813;DHT22;55808;48.112;11.552;2022-11-21T07:35:46;3.50;99.90
68813;DHT22;55808;48.112;11.552;2022-11-21T07:38:12;3.40;99.90
68813;DHT22;55808;48.112;11.552;2022-11-21T07:40:37;3.40;99.90
68813;DHT22;55808;48.112;11.552;2022-11-21T07:43:04;3.30;99.90
68813;DHT22;55808;48.112;11.552;2022-11-21T07:45:31;3.40;99.90
68813;DHT22;55808;48.112;11.552;2022-11-21T07:47:57;3.30;99.90
68813;DHT22;55808;48.112;11.552;2022-11-21T07:50:23;3.20;99.90
68813;DHT22;55808;48.112;11.552;2022-11-21T07:52:49;3.20;99.90
68813;DHT22;55808;48.112;11.552;2022-11-21T07:55:14;3.20;99.90
68813;DHT22;55808;48.112;11.552;2022-11-21T07:57:40;3.20;99.90
68813;DHT22;55808;48.112;11.552;2022-11-21T08:00:06;3.20;99.90
68813;DHT22;55808;48.112;11.552;2022-11-21T08:02:32;3.20;99.90
68813;DHT22;55808;48.112;11.552;2022-11-21T08:04:57;3.20;99.90
68813;DHT22;55808;48.112;11.552;2022-11-21T08:07:23;3.30;99.90
68813;DHT22;55808;48.112;11.552;2022-11-21T08:09:49;3.20;99.90
68813;DHT22;55808;48.112;11.552;2022-11-21T08:12:15;3.40;99.90
68813;DHT22;55808;48.112;11.552;2022-11-21T08:14:41;3.40;99.90
68813;DHT22;55808;48.112;11.552;2022-11-21T08:17:06;3.50;99.90
68813;DHT22;55808;48.112;11.552;2022-11-21T08:19:32;3.40;99.90
68813;DHT22;55808;48.112;11.552;2022-11-21T08:21:58;3.30;99.90
68813;DHT22;55808;48.112;11.552;2022-11-21T08:24:24;3.30;99.90
68813;DHT22;55808;48.112;11.552;2022-11-21T08:26:50;3.40;99.90
68813;DHT22;55808;48.112;11.552;2022-11-21T08:29:16;3.40;99.90
68813;DHT22;55808;48.112;11.552;2022-11-21T08:31:43;3.60;99.90
68813;DHT22;55808;48.112;11.552;2022-11-21T08:34:10;3.50;99.90
68813;DHT22;55808;48.112;11.552;2022-11-21T08:36:36;3.60;99.90
68813;DHT22;55808;48.112;11.552;2022-11-21T08:39:03;3.60;99.90
68813;DHT22;55808;48.112;11.552;2022-11-21T08:41:28;3.60;99.90
68813;DHT22;55808;48.112;11.552;2022-11-21T08:44:12;3.70;99.90
68813;DHT22;55808;48.112;11.552;2022-11-21T08:46:40;3.70;99.90
68813;DHT22;55808;48.112;11.552;2022-11-21T08:49:06;3.70;99.90
68813;DHT22;55808;48.112;11.552;2022-11-21T08:51:32;3.80;99.90
68813;DHT22;55808;48.112;11.552;2022-11-21T08:53:59;3.70;99.90
68813;DHT22;55808;48.112;11.552;2022-11-21T08:56:25;3.70;99.90
68813;DHT22;55808;48.112;11.552;2022-11-21T08:58:51;3.80;99.90
68813;DHT22;55808;48.112;11.552;2022-11-21T09:01:17;3.90;99.90
68813;DHT22;55808;48.112;11.552;2022-11-21T09:03:42;4.00;99.90
68813;DHT22;55808;48.112;11.552;2022-11-21T09:06:08;4.00;99.90
68813;DHT22;55808;48.112;11.552;2022-11-21T09:08:33;4.10;99.90
68813;DHT22;55808;48.112;11.552;2022-11-21T09:11:03;4.10;99.90
68813;DHT22;55808;48.112;11.552;2022-11-21T09:13:29;4.20;99.90
68813;DHT22;55808;48.112;11.552;2022-11-21T09:15:57;4.20;99.90
68813;DHT22;55808;48.112;11.552;2022-11-21T09:18:41;4.30;99.90
68813;DHT22;55808;48.112;11.552;2022-11-21T09:21:06;4.30;99.90
68813;DHT22;55808;48.112;11.552;2022-11-21T09:23:32;4.30;99.90
68813;DHT22;55808;48.112;11.552;2022-11-21T09:25:59;4.30;99.90
68813;DHT22;55808;48.112;11.552;2022-11-21T09:28:25;4.40;99.90
68813;DHT22;55808;48.112;11.552;2022-11-21T09:30:50;4.50;99.90
68813;DHT22;55808;48.112;11.552;2022-11-21T09:33:16;4.50;99.90
68813;DHT22;55808;48.112;11.552;2022-11-21T09:35:42;4.40;99.90
68813;DHT22;55808;48.112;11.552;2022-11-21T09:38:08;4.40;99.90
68813;DHT22;55808;48.112;11.552;2022-11-21T09:40:34;4.40;99.90
68813;DHT22;55808;48.112;11.552;2022-11-21T09:45:51;4.60;99.90
68813;DHT22;55808;48.112;11.552;2022-11-21T09:51:12;4.80;99.90
68813;DHT22;55808;48.112;11.552;2022-11-21T09:54:02;4.80;99.90
68813;DHT22;55808;48.112;11.552;2022-11-21T09:56:34;5.00;99.90
68813;DHT22;55808;48.112;11.552;2022-11-21T10:01:41;5.20;99.90
68813;DHT22;55808;48.112;11.552;2022-11-21T10:04:07;5.30;99.90
68813;DHT22;55808;48.112;11.552;2022-11-21T10:07:05;5.40;99.90
68813;DHT22;55808;48.112;11.552;2022-11-21T10:12:49;5.70;99.90
68813;DHT22;55808;48.112;11.552;2022-11-21T10:26:14;5.80;99.90
68813;DHT22;55808;48.112;11.552;2022-11-21T10:31:28;5.80;99.30
68813;DHT22;55808;48.112;11.552;2022-11-21T10:33:56;5.70;98.30
68813;DHT22;55808;48.112;11.552;2022-11-21T10:36:39;5.60;98.50
68813;DHT22;55808;48.112;11.552;2022-11-21T10:39:36;5.50;98.30
68813;DHT22;55808;48.112;11.552;2022-11-21T10:42:35;5.50;99.00
68813;DHT22;55808;48.112;11.552;2022-11-21T10:45:03;5.50;98.30
68813;DHT22;55808;48.112;11.552;2022-11-21T10:47:42;5.50;98.40
68813;DHT22;55808;48.112;11.552;2022-11-21T10:52:46;5.40;98.90
68813;DHT22;55808;48.112;11.552;2022-11-21T10:55:14;5.40;98.70
68813;DHT22;55808;48.112;11.552;2022-11-21T10:57:48;5.50;97.90
68813;DHT22;55808;48.112;11.552;2022-11-21T11:00:19;5.40;97.30
68813;DHT22;55808;48.112;11.552;2022-11-21T11:05:28;5.50;96.40
68813;DHT22;55808;48.112;11.552;2022-11-21T11:08:11;5.50;96.00
68813;DHT22;55808;48.112;11.552;2022-11-21T11:10:41;5.60;95.40
68813;DHT22;55808;48.112;11.552;2022-11-21T11:13:25;5.70;95.10
68813;DHT22;55808;48.112;11.552;2022-11-21T11:18:33;5.80;94.00
68813;DHT22;55808;48.112;11.552;2022-11-21T11:21:18;5.90;93.70
68813;DHT22;55808;48.112;11.552;2022-11-21T11:23:45;6.00;93.30
68813;DHT22;55808;48.112;11.552;2022-11-21T11:26:25;6.00;93.00
68813;DHT22;55808;48.112;11.552;2022-11-21T11:28:52;6.00;93.00
68813;DHT22;55808;48.112;11.552;2022-11-21T11:31:20;5.90;92.90
68813;DHT22;55808;48.112;11.552;2022-11-21T11:33:53;6.00;93.10
68813;DHT22;55808;48.112;11.552;2022-11-21T11:36:53;6.10;92.70
68813;DHT22;55808;48.112;11.552;2022-11-21T11:45:04;6.10;92.20
68813;DHT22;55808;48.112;11.552;2022-11-21T11:50:43;6.10;92.20
68813;DHT22;55808;48.112;11.552;2022-11-21T11:53:15;6.30;92.50
68813;DHT22;55808;48.112;11.552;2022-11-21T11:58:26;6.60;91.10
68813;DHT22;55808;48.112;11.552;2022-11-21T12:01:05;6.60;91.00
68813;DHT22;55808;48.112;11.552;2022-11-21T12:03:57;6.40;91.40
68813;DHT22;55808;48.112;11.552;2022-11-21T12:06:27;6.40;91.90
68813;DHT22;55808;48.112;11.552;2022-11-21T12:08:58;6.60;91.60
68813;DHT22;55808;48.112;11.552;2022-11-21T12:11:48;9.40;85.30
68813;DHT22;55808;48.112;11.552;2022-11-21T12:17:42;12.80;74.40
68813;DHT22;55808;48.112;11.552;2022-11-21T12:20:14;13.80;70.20
68813;DHT22;55808;48.112;11.552;2022-11-21T12:22:43;13.30;69.20
68813;DHT22;55808;48.112;11.552;2022-11-21T12:25:11;14.00;66.80
68813;DHT22;55808;48.112;11.552;2022-11-21T12:27:40;14.00;67.60
68813;DHT22;55808;48.112;11.552;2022-11-21T12:33:05;10.30;77.50
68813;DHT22;55808;48.112;11.552;2022-11-21T12:47:32;14.50;59.80
68813;DHT22;55808;48.112;11.552;2022-11-21T12:50:32;14.70;61.20
68813;DHT22;55808;48.112;11.552;2022-11-21T12:53:33;13.50;61.00
68813;DHT22;55808;48.112;11.552;2022-11-21T12:56:32;12.60;62.70
68813;DHT22;55808;48.112;11.552;2022-11-21T12:59:05;12.40;63.90
68813;DHT22;55808;48.112;11.552;2022-11-21T13:01:50;12.90;62.80
68813;DHT22;55808;48.112;11.552;2022-11-21T13:04:29;13.20;63.20
68813;DHT22;55808;48.112;11.552;2022-11-21T13:06:56;12.50;66.40
68813;DHT22;55808;48.112;11.552;2022-11-21T13:09:24;12.10;65.10
68813;DHT22;55808;48.112;11.552;2022-11-21T13:11:56;13.00;64.70
68813;DHT22;55808;48.112;11.552;2022-11-21T13:20:01;12.40;62.50
68813;DHT22;55808;48.112;11.552;2022-11-21T13:25:11;12.40;62.00
68813;DHT22;55808;48.112;11.552;2022-11-21T13:27:41;12.10;62.70
68813;DHT22;55808;48.112;11.552;2022-11-21T13:56:24;10.90;65.20
68813;DHT22;55808;48.112;11.552;2022-11-21T14:04:28;10.20;64.50
68813;DHT22;55808;48.112;11.552;2022-11-21T14:09:48;8.90;70.20
68813;DHT22;55808;48.112;11.552;2022-11-21T14:17:55;9.40;71.20
68813;DHT22;55808;48.112;11.552;2022-11-21T14:20:46;8.90;72.80
68813;DHT22;55808;48.112;11.552;2022-11-21T14:23:19;8.60;74.40
68813;DHT22;55808;48.112;11.552;2022-11-21T14:25:48;8.50;75.20
68813;DHT22;55808;48.112;11.552;2022-11-21T14:28:25;8.70;73.80
68813;DHT22;55808;48.112;11.552;2022-11-21T14:31:02;8.70;76.90
68813;DHT22;55808;48.112;11.552;2022-11-21T14:34:01;8.40;75.70
68813;DHT22;55808;48.112;11.552;2022-11-21T14:36:26;8.10;76.50
68813;DHT22;55808;48.112;11.552;2022-11-21T14:38:58;8.00;76.80
68813;DHT22;55808;48.112;11.552;2022-11-21T14:41:26;8.00;77.90
68813;DHT22;55808;48.112;11.552;2022-11-21T14:46:32;8.10;78.40
68813;DHT22;55808;48.112;11.552;2022-11-21T14:49:19;8.10;81.10
68813;DHT22;55808;48.112;11.552;2022-11-21T14:54:52;7.90;80.90
68813;DHT22;55808;48.112;11.552;2022-11-21T14:57:23;7.40;83.60
68813;DHT22;55808;48.112;11.552;2022-11-21T14:59:49;7.10;85.30
68813;DHT22;55808;48.112;11.552;2022-11-21T15:02:21;6.80;88.20
68813;DHT22;55808;48.112;11.552;2022-11-21T15:04:49;6.50;88.90
68813;DHT22;55808;48.112;11.552;2022-11-21T15:07:17;6.40;90.20
68813;DHT22;55808;48.112;11.552;2022-11-21T15:09:44;6.30;91.30
68813;DHT22;55808;48.112;11.552;2022-11-21T15:12:10;6.10;91.80
68813;DHT22;55808;48.112;11.552;2022-11-21T15:14:53;5.90;92.40
68813;DHT22;55808;48.112;11.552;2022-11-21T15:17:21;5.80;93.20
68813;DHT22;55808;48.112;11.552;2022-11-21T15:20:20;5.70;93.60
68813;DHT22;55808;48.112;11.552;2022-11-21T15:22:46;5.60;94.50
68813;DHT22;55808;48.112;11.552;2022-11-21T15:27:42;5.40;95.50
68813;DHT22;55808;48.112;11.552;2022-11-21T15:38:27;5.20;97.70
68813;DHT22;55808;48.112;11.552;2022-11-21T15:41:22;5.10;98.30
68813;DHT22;55808;48.112;11.552;2022-11-21T15:43:50;5.10;98.70
68813;DHT22;55808;48.112;11.552;2022-11-21T15:46:19;5.00;98.80
68813;DHT22;55808;48.112;11.552;2022-11-21T15:48:50;4.90;99.50
68813;DHT22;55808;48.112;11.552;2022-11-21T15:51:20;4.80;99.90
68813;DHT22;55808;48.112;11.552;2022-11-21T15:53:46;4.80;99.90
68813;DHT22;55808;48.112;11.552;2022-11-21T15:56:13;4.80;99.90
68813;DHT22;55808;48.112;11.552;2022-11-21T15:58:40;4.60;99.90
68813;DHT22;55808;48.112;11.552;2022-11-21T16:01:14;4.70;99.90
68813;DHT22;55808;48.112;11.552;2022-11-21T16:03:41;4.60;99.90
68813;DHT22;55808;48.112;11.552;2022-11-21T16:06:06;4.60;99.90
68813;DHT22;55808;48.112;11.552;2022-11-21T16:08:32;4.60;99.90
68813;DHT22;55808;48.112;11.552;2022-11-21T16:10:57;4.50;99.90
68813;DHT22;55808;48.112;11.552;2022-11-21T16:13:24;4.50;99.90
68813;DHT22;55808;48.112;11.552;2022-11-21T16:15:49;4.40;99.90
68813;DHT22;55808;48.112;11.552;2022-11-21T16:18:17;4.30;99.90
68813;DHT22;55808;48.112;11.552;2022-11-21T16:20:43;4.30;99.90
68813;DHT22;55808;48.112;11.552;2022-11-21T16:23:11;4.30;99.90
68813;DHT22;55808;48.112;11.552;2022-11-21T16:25:49;4.20;99.90
68813;DHT22;55808;48.112;11.552;2022-11-21T16:28:14;4.20;99.90
68813;DHT22;55808;48.112;11.552;2022-11-21T16:30:40;4.10;99.90
68813;DHT22;55808;48.112;11.552;2022-11-21T16:33:06;4.10;99.90
68813;DHT22;55808;48.112;11.552;2022-11-21T16:35:31;4.10;99.90
68813;DHT22;55808;48.112;11.552;2022-11-21T16:38:00;4.00;99.90
68813;DHT22;55808;48.112;11.552;2022-11-21T16:40:25;4.00;99.90
68813;DHT22;55808;48.112;11.552;2022-11-21T16:42:51;4.00;99.90
68813;DHT22;55808;48.112;11.552;2022-11-21T16:45:19;4.00;99.90
68813;DHT22;55808;48.112;11.552;2022-11-21T16:47:45;3.90;99.90
68813;DHT22;55808;48.112;11.552;2022-11-21T16:50:10;3.90;99.90
68813;DHT22;55808;48.112;11.552;2022-11-21T16:52:36;3.80;99.90
68813;DHT22;55808;48.112;11.552;2022-11-21T16:55:02;3.80;99.90
68813;DHT22;55808;48.112;11.552;2022-11-21T16:57:28;3.80;99.90
68813;DHT22;55808;48.112;11.552;2022-11-21T16:59:54;3.70;99.90
68813;DHT22;55808;48.112;11.552;2022-11-21T17:02:19;3.70;99.90
68813;DHT22;55808;48.112;11.552;2022-11-21T17:04:45;3.70;99.90
68813;DHT22;55808;48.112;11.552;2022-11-21T17:07:10;3.70;99.90
68813;DHT22;55808;48.112;11.552;2022-11-21T17:09:36;3.60;99.90
68813;DHT22;55808;48.112;11.552;2022-11-21T17:12:02;3.60;99.90
68813;DHT22;55808;48.112;11.552;2022-11-21T17:14:27;3.60;99.90
68813;DHT22;55808;48.112;11.552;2022-11-21T17:16:53;3.50;99.90
68813;DHT22;55808;48.112;11.552;2022-11-21T17:19:18;3.50;99.90
68813;DHT22;55808;48.112;11.552;2022-11-21T17:21:45;3.50;99.90
68813;DHT22;55808;48.112;11.552;2022-11-21T17:24:11;3.50;99.90
68813;DHT22;55808;48.112;11.552;2022-11-21T17:26:37;3.40;99.90
68813;DHT22;55808;48.112;11.552;2022-11-21T17:29:03;3.40;99.90
68813;DHT22;55808;48.112;11.552;2022-11-21T17:31:30;3.30;99.90
68813;DHT22;55808;48.112;11.552;2022-11-21T17:33:57;3.30;99.90
68813;DHT22;55808;48.112;11.552;2022-11-21T17:36:26;3.30;99.90
68813;DHT22;55808;48.112;11.552;2022-11-21T17:38:53;3.30;99.90
68813;DHT22;55808;48.112;11.552;2022-11-21T17:41:20;3.20;99.90
68813;DHT22;55808;48.112;11.552;2022-11-21T17:43:46;3.20;99.90
68813;DHT22;55808;48.112;11.552;2022-11-21T17:46:19;3.20;99.90
68813;DHT22;55808;48.112;11.552;2022-11-21T17:48:55;3.10;99.90
68813;DHT22;55808;48.112;11.552;2022-11-21T17:51:31;3.10;99.90
68813;DHT22;55808;48.112;11.552;2022-11-21T17:54:00;3.10;99.90
68813;DHT22;55808;48.112;11.552;2022-11-21T17:56:29;3.10;99.90
68813;DHT22;55808;48.112;11.552;2022-11-21T17:58:55;3.00;99.90
68813;DHT22;55808;48.112;11.552;2022-11-21T18:01:23;3.00;99.90
68813;DHT22;55808;48.112;11.552;2022-11-21T18:03:54;3.00;99.90
68813;DHT22;55808;48.112;11.552;2022-11-21T18:06:21;3.00;99.90